TSO weather

Carroll County-Tolson Airport
Carrollton, Ohio, United States

Public forecast

Using degrees Fahrenheit for public forecast. Weather courtesy of forecast.io.

METAR (pilot weather report)

Closest report is Harry Clever Field, 16.5 nm (30.6 km) WSW. Retrieved 2019/03/26 14:53 UTC (60 minutes ago):

KPHD 261453Z AUTO 01008KT 10SM CLR 02/M09 A3040 RMK AO2 SLP304 T00171094 51014

TAF (pilot weather forecast)

Closest forecast is Akron Canton Regional Airport, 27.0 nm (50.0 km) NW. Retrieved 2019/03/26 12:22 UTC (4 hours ago):

TAF KCAK 261120Z 2612/2712 02006KT P6SM SKC FM270300 VRB03KT P6SM SKC